Time;durP1;ratioP1;P1;durP2;ratioP2;P2;SDS_P1;SDS_P2;PMS_P1;PMS_P2;Temp;Humidity;BMP_temperature;BMP_pressure;BME280_temperature;BME280_humidity;BME280_pressure;Samples;Min_cycle;Max_cycle;Signal;HPM_P1;HPM_P2
2022/05/07 01:05:34;;;;;;;20.10;14.73;;;;;;;7.29;63.58;101103.73;3639151;78;22720;-80
2022/05/07 01:10:25;;;;;;;17.02;12.63;;;;;;;7.23;63.78;101095.34;3525359;78;22116;-80
2022/05/07 01:15:17;;;;;;;13.70;11.90;;;;;;;7.19;63.74;101096.45;3556396;80;21531;-80
2022/05/07 01:20:11;;;;;;;13.90;12.43;;;;;;;7.13;63.71;101099.70;3558955;80;20959;-80
2022/05/07 01:25:03;;;;;;;18.10;13.00;;;;;;;6.90;63.76;101102.70;3514110;79;21474;-80
2022/05/07 01:29:54;;;;;;;16.73;12.73;;;;;;;6.85;64.25;101101.27;3536121;79;20942;-80
2022/05/07 01:34:45;;;;;;;17.17;14.13;;;;;;;6.86;64.47;101099.13;3533378;79;21023;-80
2022/05/07 01:39:37;;;;;;;20.85;13.50;;;;;;;6.86;64.21;101115.06;3578136;80;20915;-80
2022/05/07 01:44:29;;;;;;;18.02;13.25;;;;;;;6.84;64.47;101106.38;3534620;79;21005;-80
2022/05/07 01:49:20;;;;;;;16.07;13.00;;;;;;;6.80;64.53;101110.96;3546831;80;20943;-80
2022/05/07 01:54:12;;;;;;;15.10;12.53;;;;;;;6.73;64.63;101102.08;3577922;79;20931;-80
2022/05/07 01:59:04;;;;;;;14.33;12.82;;;;;;;6.73;64.67;101099.50;3565317;79;21026;-80
2022/05/07 02:03:55;;;;;;;18.67;12.58;;;;;;;6.65;64.60;101092.75;3576766;79;20962;-80
2022/05/07 02:08:48;;;;;;;12.65;10.55;;;;;;;6.64;64.65;101087.52;3532621;79;20941;-80
2022/05/07 02:13:41;;;;;;;14.33;11.33;;;;;;;6.59;64.76;101083.88;3511979;79;21060;-80
2022/05/07 02:18:33;;;;;;;14.63;12.45;;;;;;;6.48;64.74;101084.32;3557543;79;20935;-80
2022/05/07 02:23:23;;;;;;;12.98;11.45;;;;;;;6.44;64.83;101085.03;3547503;79;21523;-80
2022/05/07 02:28:17;;;;;;;13.97;12.10;;;;;;;6.37;64.82;101088.19;3534406;79;21631;-81
2022/05/07 02:33:08;;;;;;;16.85;13.32;;;;;;;6.31;64.98;101078.89;3563943;79;21372;-80
2022/05/07 02:38:01;;;;;;;15.65;12.80;;;;;;;6.28;64.92;101082.66;3561943;79;21001;-80
2022/05/07 02:42:52;;;;;;;15.55;12.00;;;;;;;6.27;64.92;101084.34;3556062;78;20993;-81
2022/05/07 02:47:44;;;;;;;14.15;12.33;;;;;;;6.21;64.81;101089.27;3494267;79;21173;-80
2022/05/07 02:52:38;;;;;;;16.37;12.58;;;;;;;6.14;64.80;101091.55;3545513;79;21017;-80
2022/05/07 02:57:29;;;;;;;16.15;13.03;;;;;;;6.05;64.91;101091.63;3565834;79;20923;-80
2022/05/07 03:02:22;;;;;;;16.00;13.38;;;;;;;5.93;65.09;101089.80;3531203;79;21017;-80
2022/05/07 03:07:15;;;;;;;14.58;12.53;;;;;;;5.96;65.06;101096.84;3578573;79;20969;-80
2022/05/07 03:12:09;;;;;;;18.32;13.58;;;;;;;5.95;65.04;101090.73;3552144;78;21602;-80
2022/05/07 03:17:01;;;;;;;14.53;13.08;;;;;;;5.90;64.96;101090.95;3569167;79;21661;-80
2022/05/07 03:21:52;;;;;;;16.52;12.93;;;;;;;5.90;65.11;101094.82;3523996;79;21023;-80
2022/05/07 03:26:45;;;;;;;18.92;14.68;;;;;;;5.88;65.12;101090.91;3609796;78;20978;-80
2022/05/07 03:31:39;;;;;;;16.48;12.98;;;;;;;5.82;65.37;101094.51;3554708;80;21006;-80
2022/05/07 03:36:31;;;;;;;21.45;14.65;;;;;;;5.90;65.57;101114.17;3536327;80;21218;-80
2022/05/07 03:41:22;;;;;;;20.80;15.40;;;;;;;6.08;66.03;101104.67;3581167;80;20935;-80
2022/05/07 03:46:13;;;;;;;19.05;15.98;;;;;;;6.22;65.90;101115.97;3529014;80;20942;-80
2022/05/07 03:51:06;;;;;;;19.80;16.25;;;;;;;6.40;65.89;101123.19;3551298;80;21081;-80
2022/05/07 03:56:05;;;;;;;21.77;16.12;;;;;;;6.51;65.71;101115.88;3515843;80;21464;-80
2022/05/07 04:00:59;;;;;;;19.15;16.23;;;;;;;7.27;65.18;101103.22;3632320;78;22169;-80
2022/05/07 04:05:51;;;;;;;22.17;16.70;;;;;;;7.49;64.50;101111.34;3568355;78;21609;-80
2022/05/07 04:10:44;;;;;;;19.92;17.48;;;;;;;7.86;64.17;101113.50;3548009;80;22157;-80
2022/05/07 04:15:39;;;;;;;21.10;17.05;;;;;;;8.19;63.77;101112.87;3512812;80;21067;-80
2022/05/07 04:20:31;;;;;;;20.72;17.48;;;;;;;8.21;63.59;101117.28;3629151;78;20969;-80
2022/05/07 04:25:24;;;;;;;19.60;16.52;;;;;;;7.96;63.92;101110.41;3559005;80;20955;-79
2022/05/07 04:30:15;;;;;;;19.73;16.30;;;;;;;7.79;64.18;101125.77;3532105;80;21448;-80
2022/05/07 04:35:07;;;;;;;21.33;17.35;;;;;;;7.62;64.73;101123.48;3529146;80;21460;-79
2022/05/07 04:40:00;;;;;;;21.60;18.67;;;;;;;7.56;65.28;101129.71;3509799;80;21539;-79
2022/05/07 04:44:51;;;;;;;23.02;18.25;;;;;;;7.70;65.49;101132.80;3524057;80;20989;-79
2022/05/07 04:49:44;;;;;;;24.98;19.27;;;;;;;7.79;66.01;101140.01;3543707;80;20954;-80
2022/05/07 04:54:37;;;;;;;25.55;20.75;;;;;;;7.91;66.53;101140.44;3531798;80;22021;-80
2022/05/07 04:59:30;;;;;;;24.77;19.67;;;;;;;8.09;67.15;101148.38;3524898;80;20991;-80
2022/05/07 05:04:23;;;;;;;29.55;22.13;;;;;;;8.24;67.33;101152.77;3493500;79;20943;-80
2022/05/07 05:09:16;;;;;;;25.57;19.67;;;;;;;8.44;67.65;101152.58;3446943;81;20971;-79
2022/05/07 05:19:25;;;;;;;23.10;20.57;;;;;;;8.97;68.06;101159.45;3442956;81;20999;-80
2022/05/07 05:24:17;;;;;;;28.62;22.65;;;;;;;9.29;68.16;101164.73;3471695;81;21008;-80
2022/05/07 05:29:08;;;;;;;35.40;22.45;;;;;;;9.63;68.36;101151.84;3519689;79;20985;-80
2022/05/07 05:34:00;;;;;;;26.90;22.70;;;;;;;10.20;68.33;101155.95;3440571;81;20970;-80
2022/05/07 05:38:53;;;;;;;24.67;21.97;;;;;;;10.49;68.06;101155.41;3541931;79;21477;-80
2022/05/07 05:43:47;;;;;;;24.45;20.97;;;;;;;10.49;68.06;101155.41;3513514;79;21021;-81
2022/05/07 05:48:38;;;;;;;23.95;19.23;;;;;;;10.77;67.58;101155.64;3554010;79;20961;-81
2022/05/07 05:53:31;;;;;;;20.10;17.23;;;;;;;11.06;67.22;101153.69;3518643;79;20973;-81
2022/05/07 05:58:23;;;;;;;20.80;16.20;;;;;;;11.39;66.64;101151.36;3487024;79;20946;-81
2022/05/07 06:03:16;;;;;;;17.87;15.93;;;;;;;12.88;64.33;101146.58;3526347;78;22481;-81
2022/05/07 06:08:07;;;;;;;15.45;12.95;;;;;;;15.73;60.91;101139.01;3559445;79;20943;-81
2022/05/07 06:13:00;;;;;;;16.40;13.83;;;;;;;17.91;57.60;101134.70;3612170;78;20915;-82
2022/05/07 06:17:52;;;;;;;16.93;13.32;;;;;;;20.27;53.90;101137.77;3524835;79;20951;-82
2022/05/07 06:22:43;;;;;;;15.35;13.70;;;;;;;22.49;51.25;101135.83;3561735;79;20966;-83
2022/05/07 06:27:35;;;;;;;13.30;11.97;;;;;;;24.29;47.99;101134.55;3581814;79;22195;-83
2022/05/07 06:32:34;;;;;;;13.25;11.95;;;;;;;23.81;46.91;101128.13;3545403;80;20990;-83
2022/05/07 06:37:27;;;;;;;11.93;10.75;;;;;;;23.44;47.10;101141.16;3557973;80;20982;-83
2022/05/07 06:42:19;;;;;;;13.62;12.25;;;;;;;22.97;45.62;101136.75;3590164;78;22050;-83
2022/05/07 06:47:12;;;;;;;12.82;11.50;;;;;;;22.64;45.72;101142.03;3513203;80;20942;-83
2022/05/07 06:52:04;;;;;;;12.65;11.35;;;;;;;22.54;44.39;101136.59;3522056;80;21417;-83
2022/05/07 06:56:55;;;;;;;13.85;12.43;;;;;;;23.58;42.59;101130.98;3574704;78;21077;-83
2022/05/07 07:01:47;;;;;;;13.45;12.15;;;;;;;24.95;42.25;101137.59;3575962;78;22110;-82
2022/05/07 07:06:39;;;;;;;13.05;11.73;;;;;;;27.54;38.74;101129.55;3569855;79;22025;-82
2022/05/07 07:11:31;;;;;;;13.38;11.33;;;;;;;27.56;37.58;101129.00;3537082;79;21002;-83
2022/05/07 07:16:23;;;;;;;13.88;10.08;;;;;;;27.26;38.30;101129.49;3552678;78;21145;-84
2022/05/07 07:21:16;;;;;;;9.90;8.90;;;;;;;29.06;35.77;101134.39;3499937;79;20907;-84
2022/05/07 07:26:07;;;;;;;11.43;6.78;;;;;;;30.83;34.04;101135.48;3518717;79;20911;-85
2022/05/07 07:30:58;;;;;;;8.20;7.40;;;;;;;32.71;31.06;101139.44;3534002;79;21708;-85
2022/05/07 07:35:49;;;;;;;6.80;6.20;;;;;;;33.95;28.39;101134.53;3566113;79;20935;-85
2022/05/07 07:40:41;;;;;;;7.28;6.62;;;;;;;34.35;27.80;101127.95;3506687;79;21516;-85
2022/05/07 07:50:42;;;;;;;5.83;5.33;;;;;;;34.51;26.62;101124.93;3576854;79;20934;-85
2022/05/07 07:55:34;;;;;;;5.47;4.97;;;;;;;33.41;26.90;101134.91;3577862;79;20950;-86
2022/05/07 08:00:29;;;;;;;7.03;5.05;;;;;;;33.56;26.22;101131.09;3567095;79;20965;-85
2022/05/07 08:05:28;;;;;;;5.17;3.85;;;;;;;32.76;25.87;101135.95;3470790;79;21929;-85
2022/05/07 08:15:30;;;;;;;4.10;3.80;;;;;;;27.70;29.45;101138.55;3311479;84;21013;-84
2022/05/07 08:20:21;;;;;;;6.55;4.45;;;;;;;27.88;29.44;101124.80;3312529;85;20991;-84
2022/05/07 08:25:12;;;;;;;5.72;4.05;;;;;;;26.77;30.55;101130.37;3288493;85;21010;-83
2022/05/07 08:30:04;;;;;;;6.53;4.55;;;;;;;26.68;30.62;101129.45;3229478;85;21479;-87
2022/05/07 08:34:55;;;;;;;6.80;4.03;;;;;;;28.84;29.15;101127.52;3264984;85;21016;-88
2022/05/07 08:39:47;;;;;;;4.95;3.65;;;;;;;31.13;26.57;101132.26;3263257;85;20939;-85
2022/05/07 08:44:38;;;;;;;4.10;3.67;;;;;;;28.06;27.91;101135.08;3334861;80;21425;-86
2022/05/07 08:49:30;;;;;;;6.55;4.17;;;;;;;27.01;29.18;101129.28;3491236;80;21014;-85
2022/05/07 08:54:21;;;;;;;6.08;4.62;;;;;;;25.92;30.75;101127.23;3498189;79;21456;-85
2022/05/07 08:59:13;;;;;;;4.30;3.77;;;;;;;25.70;31.06;101125.88;3416584;80;21018;-84
2022/05/07 09:04:11;;;;;;;6.83;5.00;;;;;;;25.63;32.00;101129.71;3469389;80;20956;-86
2022/05/07 09:09:07;;;;;;;4.87;3.47;;;;;;;26.33;30.11;101127.82;3517668;78;20973;-85
2022/05/07 09:14:04;;;;;;;4.35;3.30;;;;;;;26.25;31.00;101124.98;3502339;79;21386;-86
2022/05/07 09:18:54;;;;;;;;;;;;;;;25.36;31.38;101135.21;3574566;78;21259;-86
2022/05/07 09:23:48;;;;;;;2.72;2.52;;;;;;;24.49;32.19;101137.84;3533745;79;20107;-85
2022/05/07 09:28:39;;;;;;;2.30;2.10;;;;;;;26.73;30.13;101128.78;3532675;79;21009;-85
2022/05/07 09:33:35;;;;;;;3.67;2.40;;;;;;;26.69;30.47;101127.19;3500252;79;21511;-86
2022/05/07 09:38:26;;;;;;;4.05;2.80;;;;;;;29.84;27.02;101122.55;3471187;79;21037;-88
2022/05/07 09:43:18;;;;;;;3.93;2.30;;;;;;;32.64;25.35;101133.16;3495270;79;20974;-89
2022/05/07 09:48:12;;;;;;;2.05;1.85;;;;;;;34.21;23.72;101120.06;3509563;79;21176;-88
2022/05/07 09:58:18;;;;;;;1.87;1.77;;;;;;;35.53;21.78;101117.73;3496473;79;20941;-88
2022/05/07 10:03:21;;;;;;;1.70;1.60;;;;;;;36.32;20.85;101109.34;3456495;79;20986;-88
2022/05/07 10:08:34;;;;;;;1.80;1.70;;;;;;;36.80;21.04;101112.00;3515874;79;21191;-87
2022/05/07 10:13:26;;;;;;;2.62;1.60;;;;;;;36.99;20.61;101107.17;3586893;78;22142;-88
2022/05/07 10:18:18;;;;;;;1.70;1.60;;;;;;;37.18;20.49;101100.97;3520117;78;20986;-88
2022/05/07 10:23:15;;;;;;;1.40;1.30;;;;;;;37.53;20.04;101078.78;3592244;78;21658;-88
2022/05/07 10:28:13;;;;;;;1.87;1.77;;;;;;;37.72;19.75;101071.68;3529040;79;20958;-88
2022/05/07 10:33:05;;;;;;;1.92;1.67;;;;;;;37.05;19.22;101075.95;3520488;79;22579;-88
2022/05/07 10:38:10;;;;;;;1.67;1.57;;;;;;;36.79;19.44;101071.88;3511366;79;21456;-87
2022/05/07 10:43:03;;;;;;;3.85;2.27;;;;;;;36.64;19.20;101090.28;3544594;80;21582;-87
2022/05/07 10:47:57;;;;;;;1.83;1.73;;;;;;;36.16;20.43;101076.44;3489627;80;20994;-87
2022/05/07 10:52:56;;;;;;;1.60;1.50;;;;;;;35.89;20.61;101072.39;3578731;80;20969;-87
2022/05/07 10:57:49;;;;;;;1.92;1.40;;;;;;;35.46;20.15;101075.97;3532145;78;21492;-86
2022/05/07 11:02:40;;;;;;;1.32;1.20;;;;;;;35.05;20.36;101073.43;3484698;78;21658;-87
2022/05/07 11:07:32;;;;;;;3.60;1.12;;;;;;;34.83;20.77;101067.06;3551360;78;21394;-88
2022/05/07 11:12:23;;;;;;;1.50;1.40;;;;;;;34.50;20.21;101072.80;3583422;78;21519;-88
2022/05/07 11:17:17;;;;;;;1.20;1.10;;;;;;;33.94;20.73;101064.52;3529903;79;20911;-88
2022/05/07 11:22:10;;;;;;;4.23;1.57;;;;;;;33.26;21.12;101056.06;3526970;78;21346;-87
2022/05/07 11:27:10;;;;;;;2.52;1.37;;;;;;;33.10;22.02;101063.52;3550054;78;21649;-87
2022/05/07 11:32:07;;;;;;;3.20;1.30;;;;;;;31.61;22.33;101058.53;3579290;78;20950;-87
2022/05/07 11:37:20;;;;;;;3.20;1.57;;;;;;;30.33;23.71;101050.40;3583049;78;20977;-86
2022/05/07 11:42:43;;;;;;;1.73;1.23;;;;;;;29.62;24.53;101037.16;3603078;78;21262;-86
2022/05/07 11:47:34;;;;;;;6.67;2.30;;;;;;;28.96;24.92;101050.22;3586822;78;21436;-87
2022/05/07 11:52:28;;;;;;;2.55;1.35;;;;;;;28.23;26.78;101037.13;3544302;78;20939;-87
2022/05/07 11:57:32;;;;;;;4.72;1.60;;;;;;;27.55;26.54;101036.49;3581108;78;20915;-87
2022/05/07 12:02:23;;;;;;;4.03;1.80;;;;;;;27.44;27.74;101033.49;3519390;79;21505;-87
2022/05/07 12:07:14;;;;;;;1.67;1.55;;;;;;;26.63;28.40;101027.86;3559226;78;20931;-87
2022/05/07 12:12:07;;;;;;;5.30;1.90;;;;;;;26.63;29.55;101025.19;3606216;78;21166;-84
2022/05/07 12:32:28;;;;;;;1.85;1.67;;;;;;;26.92;29.37;101024.32;3614308;78;20998;-88
2022/05/07 12:37:20;;;;;;;2.08;1.42;;;;;;;25.41;29.10;101024.09;3570256;78;21890;-84
2022/05/07 12:42:12;;;;;;;2.05;1.52;;;;;;;24.56;29.77;101029.09;3597977;78;20962;-85
2022/05/07 12:47:05;;;;;;;4.15;1.80;;;;;;;25.05;30.48;101009.09;3566807;78;21216;-84
2022/05/07 12:51:56;;;;;;;2.30;1.90;;;;;;;25.60;30.45;101012.72;3544738;78;20946;-85
2022/05/07 12:56:49;;;;;;;1.42;1.32;;;;;;;25.90;30.06;101007.02;3585502;78;21040;-84
2022/05/07 13:01:40;;;;;;;4.30;1.40;;;;;;;26.31;29.92;101008.39;3577903;78;21058;-85
2022/05/07 13:06:31;;;;;;;3.15;1.50;;;;;;;26.13;30.20;101005.63;3602556;78;22025;-85
2022/05/07 13:11:24;;;;;;;2.00;1.80;;;;;;;26.38;29.95;101001.41;3616261;78;21009;-86
2022/05/07 13:16:16;;;;;;;4.45;1.85;;;;;;;26.47;29.79;100999.24;3617162;78;20935;-86
2022/05/07 13:21:08;;;;;;;3.60;2.35;;;;;;;25.77;29.04;100986.70;3573601;77;20969;-85
2022/05/07 13:25:59;;;;;;;2.87;1.32;;;;;;;25.91;29.41;100991.45;3556598;78;21142;-85
2022/05/07 13:30:50;;;;;;;2.87;1.95;;;;;;;25.76;28.97;100982.33;3578042;78;20899;-84
2022/05/07 13:35:41;;;;;;;2.62;1.40;;;;;;;25.94;30.45;100990.03;3574291;78;20955;-83
2022/05/07 13:40:33;;;;;;;2.00;1.20;;;;;;;26.13;29.57;100996.30;3530016;80;20967;-85
2022/05/07 13:45:24;;;;;;;2.33;1.98;;;;;;;26.05;29.25;100982.43;3540508;78;21179;-85
2022/05/07 13:50:16;;;;;;;1.47;1.00;;;;;;;26.14;29.09;100981.16;3551943;79;22050;-85
2022/05/07 13:55:09;;;;;;;4.70;1.27;;;;;;;26.28;30.04;100973.90;3488611;79;20954;-85
2022/05/07 14:00:04;;;;;;;2.25;1.45;;;;;;;26.28;30.07;100964.09;3491767;79;20927;-85
2022/05/07 14:04:57;;;;;;;;;;;;;;;26.43;30.12;100964.75;3554539;79;21006;-85
2022/05/07 14:09:48;;;;;;;3.77;1.47;;;;;;;26.32;29.22;100956.83;3498498;80;20102;-84
2022/05/07 14:14:39;;;;;;;2.50;1.27;;;;;;;26.08;29.13;100967.65;3526128;79;21195;-85
2022/05/07 14:19:30;;;;;;;1.32;1.22;;;;;;;25.87;29.63;100954.77;3544267;79;20943;-84
2022/05/07 14:24:21;;;;;;;2.02;1.42;;;;;;;25.81;28.60;100955.89;3546172;79;21598;-85
2022/05/07 14:29:12;;;;;;;3.37;1.40;;;;;;;25.85;29.47;100956.16;3567143;80;21038;-84
2022/05/07 14:34:04;;;;;;;1.67;1.27;;;;;;;25.85;29.13;100951.30;3517336;79;21805;-85
2022/05/07 14:38:55;;;;;;;2.40;1.75;;;;;;;25.62;29.28;100953.14;3588988;78;21256;-85
2022/05/07 14:43:46;;;;;;;3.10;1.40;;;;;;;25.72;29.24;100952.73;3581680;78;20990;-85
2022/05/07 14:48:37;;;;;;;2.37;1.52;;;;;;;25.84;29.84;100951.78;3526615;78;21511;-86
2022/05/07 14:53:29;;;;;;;1.83;1.63;;;;;;;25.80;29.52;100943.50;3609762;78;21735;-84
2022/05/07 14:58:21;;;;;;;2.02;1.30;;;;;;;25.78;29.36;100945.84;3507016;80;20970;-84
2022/05/07 15:03:13;;;;;;;2.65;1.35;;;;;;;25.76;30.16;100937.91;3524888;79;21165;-84
2022/05/07 15:13:14;;;;;;;2.75;1.40;;;;;;;25.85;29.07;100935.32;3500327;80;21484;-84
2022/05/07 15:18:06;;;;;;;2.27;1.50;;;;;;;25.81;30.01;100937.25;3489577;80;20966;-85
2022/05/07 15:22:57;;;;;;;2.33;1.67;;;;;;;25.86;29.90;100934.37;3491881;80;21281;-84
2022/05/07 15:27:49;;;;;;;1.75;1.00;;;;;;;25.58;29.27;100940.03;3539289;79;21460;-84
2022/05/07 15:37:50;;;;;;;2.12;1.30;;;;;;;24.41;30.49;100941.91;3516230;79;21019;-84
2022/05/07 15:42:41;;;;;;;3.08;2.05;;;;;;;23.58;31.58;100946.54;3444814;80;21477;-83
2022/05/07 15:47:34;;;;;;;1.60;1.50;;;;;;;23.02;32.60;100943.92;3492632;79;21009;-85
2022/05/07 15:52:25;;;;;;;2.67;2.25;;;;;;;22.58;33.30;100944.80;3423709;80;21885;-85
2022/05/07 15:57:17;;;;;;;1.60;1.50;;;;;;;22.25;33.88;100944.84;3561746;79;20993;-85
2022/05/07 16:02:08;;;;;;;3.07;1.53;;;;;;;22.11;34.25;100949.18;3515945;79;21331;-85
2022/05/07 16:06:59;;;;;;;2.95;1.50;;;;;;;22.08;34.32;100947.93;3508322;79;21471;-85
2022/05/07 16:11:51;;;;;;;5.03;2.30;;;;;;;22.45;34.32;100949.13;3527697;79;21001;-85
2022/05/07 16:16:42;;;;;;;3.67;1.50;;;;;;;22.81;34.33;100944.98;3482433;79;20981;-84
2022/05/07 16:21:33;;;;;;;2.20;1.50;;;;;;;22.74;34.46;100946.55;3583083;79;20907;-84
2022/05/07 16:26:24;;;;;;;3.17;2.65;;;;;;;22.52;35.09;100946.29;3627547;78;21002;-84
2022/05/07 16:31:15;;;;;;;2.08;1.87;;;;;;;22.06;35.43;100944.46;3592820;78;21021;-84
2022/05/07 16:36:07;;;;;;;2.33;2.12;;;;;;;21.54;35.94;100949.33;3517339;79;21041;-84
2022/05/07 16:40:58;;;;;;;4.20;2.85;;;;;;;21.23;36.55;100942.12;3573458;78;21007;-84
2022/05/07 16:45:49;;;;;;;5.15;2.90;;;;;;;21.14;37.41;100943.66;3520945;79;21049;-84
2022/05/07 16:50:41;;;;;;;2.60;2.35;;;;;;;20.98;38.29;100944.46;3568025;78;21531;-84
2022/05/07 16:55:32;;;;;;;2.40;2.20;;;;;;;21.08;38.38;100946.42;3582812;78;21005;-84
2022/05/07 17:00:23;;;;;;;5.15;2.95;;;;;;;21.23;38.77;100942.12;3582607;78;21021;-84
2022/05/07 17:05:14;;;;;;;2.90;2.58;;;;;;;21.35;38.93;100938.75;3526061;79;21147;-84
2022/05/07 17:10:06;;;;;;;4.75;2.60;;;;;;;21.36;39.05;100941.83;3575108;79;21523;-84
2022/05/07 17:14:58;;;;;;;11.63;4.05;;;;;;;21.24;39.41;100949.13;3551128;79;20927;-84
2022/05/07 17:19:51;;;;;;;4.10;1.87;;;;;;;21.04;40.30;100950.05;3568700;78;20982;-84
2022/05/07 17:24:42;;;;;;;7.92;2.42;;;;;;;20.78;40.83;100955.45;3570721;78;20974;-86
2022/05/07 17:29:34;;;;;;;4.03;2.05;;;;;;;20.54;40.80;100961.64;3612482;78;21041;-86
2022/05/07 17:34:26;;;;;;;5.50;2.00;;;;;;;20.27;41.48;100961.74;3560424;78;20961;-86
2022/05/07 17:39:17;;;;;;;3.52;1.55;;;;;;;19.98;41.74;100971.53;3579879;78;20978;-86
2022/05/07 17:44:08;;;;;;;6.97;2.00;;;;;;;19.69;41.95;100974.20;3551533;77;21499;-86
2022/05/07 17:49:19;;;;;;;15.68;3.37;;;;;;;19.38;42.35;100981.25;3611394;77;20955;-86
2022/05/07 17:54:11;;;;;;;14.07;3.25;;;;;;;19.04;43.55;100979.11;3592831;78;21227;-84
2022/05/07 17:59:02;;;;;;;7.15;2.52;;;;;;;18.74;44.06;100983.44;3570158;78;21431;-85
2022/05/07 18:03:54;;;;;;;6.58;2.25;;;;;;;18.49;44.77;100979.78;3541293;78;21503;-85
2022/05/07 18:08:46;;;;;;;5.30;2.37;;;;;;;18.27;45.14;100983.97;3580044;78;20975;-84
2022/05/07 18:13:37;;;;;;;12.53;3.52;;;;;;;18.02;45.37;100986.43;3590461;78;20950;-84
2022/05/07 18:18:28;;;;;;;6.75;4.47;;;;;;;17.74;46.23;100989.25;3549998;78;21124;-83
2022/05/07 18:23:19;;;;;;;7.55;3.00;;;;;;;17.53;46.59;100986.37;3557640;78;21483;-83
2022/05/07 18:28:10;;;;;;;5.62;3.10;;;;;;;17.32;47.15;100994.83;3499475;79;21632;-85
2022/05/07 18:33:02;;;;;;;6.17;2.87;;;;;;;17.12;47.38;100991.47;3569752;79;20958;-85
2022/05/07 18:43:03;;;;;;;6.58;3.33;;;;;;;16.72;48.06;101005.63;3515155;80;21010;-84
2022/05/07 18:47:55;;;;;;;7.72;3.80;;;;;;;16.49;48.94;101004.80;3530411;79;21539;-85
2022/05/07 18:52:47;;;;;;;13.30;4.50;;;;;;;16.30;49.10;101015.36;3557168;79;20970;-85
2022/05/07 19:02:48;;;;;;;7.33;4.92;;;;;;;15.89;49.64;101016.27;3561625;79;22091;-85
2022/05/07 19:07:39;;;;;;;9.25;5.05;;;;;;;15.73;50.13;101010.56;3550561;78;22712;-85
2022/05/07 19:12:30;;;;;;;11.57;6.53;;;;;;;15.54;50.78;101007.03;3548519;79;21046;-85
2022/05/07 19:17:21;;;;;;;11.93;7.05;;;;;;;15.40;51.06;101007.04;3512955;79;20941;-84
2022/05/07 19:22:12;;;;;;;11.50;8.10;;;;;;;15.21;51.70;101012.22;3507735;79;20943;-84
2022/05/07 19:27:06;;;;;;;11.22;7.75;;;;;;;15.03;51.72;101017.41;3492662;80;20919;-84
2022/05/07 19:31:57;;;;;;;9.00;6.83;;;;;;;14.87;52.33;101021.27;3502979;79;21075;-84
2022/05/07 19:36:48;;;;;;;11.83;7.75;;;;;;;14.78;52.67;101021.23;3491870;80;21488;-84
2022/05/07 19:41:41;;;;;;;10.00;7.67;;;;;;;14.62;52.88;101016.80;3474847;80;20954;-84
2022/05/07 19:46:32;;;;;;;10.35;7.72;;;;;;;14.48;53.08;101016.24;3455231;80;20966;-84
2022/05/07 19:51:24;;;;;;;9.15;6.55;;;;;;;14.38;53.42;101024.03;3509170;80;21471;-84
2022/05/07 19:56:15;;;;;;;7.90;6.80;;;;;;;14.26;53.80;101017.00;3514172;78;22142;-84
2022/05/07 20:01:07;;;;;;;9.10;7.03;;;;;;;14.14;54.02;101012.55;3506216;78;20986;-84
2022/05/07 20:05:59;;;;;;;11.38;7.87;;;;;;;14.00;54.42;101017.66;3517547;78;21444;-84
2022/05/07 20:10:50;;;;;;;11.50;8.50;;;;;;;13.90;54.52;101014.56;3512605;78;21052;-84
2022/05/07 20:15:42;;;;;;;12.30;11.05;;;;;;;13.79;54.96;101021.41;3550910;80;21002;-84
2022/05/07 20:25:43;;;;;;;12.75;9.40;;;;;;;13.51;55.33;101022.48;3535242;79;20982;-84
2022/05/07 20:30:36;;;;;;;12.25;9.53;;;;;;;13.41;55.77;101030.64;3542944;79;20990;-84
2022/05/07 20:35:28;;;;;;;12.68;9.28;;;;;;;13.29;55.63;101026.14;3563714;78;21579;-84
2022/05/07 20:40:19;;;;;;;8.80;7.28;;;;;;;13.20;55.98;101035.59;3528411;80;21496;-84
2022/05/07 20:50:21;;;;;;;12.82;7.42;;;;;;;13.02;56.57;101040.17;3578217;78;20949;-81
2022/05/07 20:55:12;;;;;;;12.40;8.48;;;;;;;12.86;56.64;101043.92;3581232;78;20943;-83
2022/05/07 21:00:05;;;;;;;8.23;6.50;;;;;;;12.73;57.04;101049.41;3490189;80;20982;-82
2022/05/07 21:04:57;;;;;;;13.40;7.62;;;;;;;12.61;57.13;101049.64;3528679;78;20927;-82
2022/05/07 21:09:50;;;;;;;13.13;6.80;;;;;;;12.47;57.56;101051.64;3485692;79;21132;-82
2022/05/07 21:14:42;;;;;;;15.10;7.70;;;;;;;12.39;57.90;101053.25;3479307;79;21289;-82
2022/05/07 21:19:35;;;;;;;11.28;7.12;;;;;;;12.29;58.12;101045.73;3465300;79;20977;-82
2022/05/07 21:26:32;;;;;;;8.78;7.10;;;;;;;12.28;58.24;101045.70;3490132;79;20923;-82
2022/05/07 21:29:18;;;;;;;9.15;6.85;;;;;;;12.20;58.31;101047.77;3491883;79;20974;-82
2022/05/07 21:34:10;;;;;;;15.18;7.33;;;;;;;12.17;58.39;101055.53;3516313;79;21077;-82
2022/05/07 21:39:04;;;;;;;10.82;8.18;;;;;;;12.12;58.41;101055.88;3495098;79;21566;-82
2022/05/07 21:43:56;;;;;;;17.98;9.03;;;;;;;12.04;58.54;101058.80;3482137;79;20996;-82
2022/05/07 21:48:48;;;;;;;13.03;9.93;;;;;;;11.94;58.79;101062.09;3503591;79;21487;-83
2022/05/07 21:53:39;;;;;;;11.55;9.38;;;;;;;11.77;59.11;101057.45;3443712;79;21002;-82
2022/05/07 21:58:37;;;;;;;10.78;7.80;;;;;;;11.71;59.43;101054.72;3462708;80;21157;-83
2022/05/07 22:03:28;;;;;;;13.43;8.28;;;;;;;11.68;59.74;101054.69;3433628;80;20953;-85
2022/05/07 22:08:20;;;;;;;10.85;7.87;;;;;;;11.60;59.87;101057.56;3485906;80;20974;-84
2022/05/07 22:13:12;;;;;;;9.68;8.00;;;;;;;11.53;59.88;101055.70;3546064;80;21029;-84
2022/05/07 22:18:03;;;;;;;13.78;8.83;;;;;;;11.47;59.91;101058.20;3557356;79;21424;-84
2022/05/07 22:22:54;;;;;;;15.75;9.48;;;;;;;11.41;60.03;101054.63;3532131;80;21734;-84
2022/05/07 22:27:45;;;;;;;11.35;8.98;;;;;;;11.36;60.17;101055.40;3512122;80;20870;-85
2022/05/07 22:32:36;;;;;;;14.15;9.83;;;;;;;11.30;60.48;101058.73;3569244;78;20954;-84
2022/05/07 22:37:27;;;;;;;13.98;10.65;;;;;;;11.24;60.40;101048.22;3555923;78;20962;-84
2022/05/07 22:42:18;;;;;;;15.18;10.82;;;;;;;11.13;60.35;101049.73;3574113;78;20951;-84
2022/05/07 22:47:09;;;;;;;19.00;10.80;;;;;;;11.08;60.66;101056.57;3550358;78;21119;-84
2022/05/07 22:52:00;;;;;;;13.83;10.28;;;;;;;11.01;60.96;101051.22;3529146;78;21484;-84
2022/05/07 22:56:51;;;;;;;16.87;11.97;;;;;;;10.95;61.12;101057.62;3556214;78;21701;-85
2022/05/07 23:01:42;;;;;;;19.32;10.90;;;;;;;10.83;61.15;101056.05;3534877;78;21593;-84
2022/05/07 23:06:33;;;;;;;17.90;10.75;;;;;;;10.73;61.48;101054.99;3500282;79;20951;-85
2022/05/07 23:11:24;;;;;;;20.50;11.33;;;;;;;10.70;61.77;101054.05;3587750;79;21018;-85
2022/05/07 23:16:16;;;;;;;21.42;13.85;;;;;;;10.64;61.65;101054.37;3569933;79;21021;-85
2022/05/07 23:21:08;;;;;;;18.23;13.05;;;;;;;10.60;61.73;101048.62;3555064;79;20994;-85
2022/05/07 23:25:59;;;;;;;18.48;13.25;;;;;;;10.55;61.66;101050.27;3474955;79;21606;-85
2022/05/07 23:30:50;;;;;;;17.67;13.63;;;;;;;10.51;61.85;101051.02;3573264;78;21015;-85
2022/05/07 23:35:40;;;;;;;25.10;13.90;;;;;;;10.45;61.94;101050.46;3502385;80;21640;-85
2022/05/07 23:40:32;;;;;;;19.95;14.18;;;;;;;10.41;62.22;101058.14;3573841;79;20974;-85
2022/05/07 23:45:23;;;;;;;23.07;13.72;;;;;;;10.36;62.21;101054.59;3512252;80;20960;-85
2022/05/07 23:50:14;;;;;;;20.43;13.38;;;;;;;10.35;62.15;101050.22;3520312;80;20919;-84
2022/05/07 23:55:06;;;;;;;23.18;14.75;;;;;;;10.30;62.03;101044.86;3538992;80;20895;-85
2022/05/07 23:59:57;;;;;;;20.45;14.18;;;;;;;10.24;62.34;101045.61;3482272;80;21145;-85
